Time,TemperatureF,DewpointF,PressureIn,WindDirection,WindDirectionDegrees,WindSpeedMPH,WindSpeedGustMPH,Humidity,HourlyPrecipIn,Conditions,Clouds,dailyrainin,SoftwareType,DateUTC
2013-01-14 00:00:00,80.0,74.7,29.95,ESE,109,13.0,18.0,84,0.00,CLR,,0.00,WeatherDisplay:10.37,2013-01-14 06:00:00,
2013-01-14 00:15:00,79.9,74.6,29.95,ESE,110,13.0,18.0,84,0.00,CLR,,0.00,WeatherDisplay:10.37,2013-01-14 06:15:00,
2013-01-14 00:30:00,79.9,74.6,29.95,ESE,109,13.0,17.0,84,0.00,CLR,,0.00,WeatherDisplay:10.37,2013-01-14 06:30:00,
2013-01-14 00:45:00,79.9,74.6,29.95,ESE,108,13.0,17.0,84,0.00,,,0.00,WeatherDisplay:10.37,2013-01-14 06:45:00,
2013-01-14 01:00:00,79.8,74.5,29.95,ESE,109,13.0,18.0,84,0.00,,,0.00,WeatherDisplay:10.37,2013-01-14 07:00:00,
2013-01-14 01:16:00,79.8,74.5,29.95,ESE,113,10.0,17.0,84,0.00,CLR,,0.00,WeatherDisplay:10.37,2013-01-14 07:16:00,
2013-01-14 01:30:00,79.9,75.0,29.95,ESE,111,13.0,17.0,85,0.00,CLR,,0.00,WeatherDisplay:10.37,2013-01-14 07:30:00,
2013-01-14 01:45:00,79.8,74.9,29.95,ESE,108,12.0,17.0,85,0.00,,,0.00,WeatherDisplay:10.37,2013-01-14 07:45:00,
2013-01-14 02:00:00,79.8,74.9,29.94,ESE,111,14.0,16.0,85,0.00,,,0.00,WeatherDisplay:10.37,2013-01-14 08:00:00,
2013-01-14 02:15:00,79.8,74.5,29.94,ESE,111,12.0,16.0,84,0.00,CLR,,0.00,WeatherDisplay:10.37,2013-01-14 08:15:00,
2013-01-14 02:30:00,79.8,74.5,29.94,ESE,111,13.0,17.0,84,0.00,CLR,,0.00,WeatherDisplay:10.37,2013-01-14 08:30:00,
2013-01-14 02:45:00,79.7,74.1,29.94,ESE,111,12.0,16.0,83,0.00,CLR,,0.00,WeatherDisplay:10.37,2013-01-14 08:45:00,
2013-01-14 03:00:00,79.8,74.6,29.94,ESE,111,12.0,15.0,84,0.00,CLR,,0.00,WeatherDisplay:10.37,2013-01-14 09:00:00,
2013-01-14 03:15:00,79.7,74.1,29.94,ESE,109,10.0,16.0,83,0.00,CLR,,0.00,WeatherDisplay:10.37,2013-01-14 09:15:00,
2013-01-14 03:30:00,79.6,74.0,29.94,ESE,110,12.0,16.0,83,0.00,CLR,,0.00,WeatherDisplay:10.37,2013-01-14 09:30:00,
2013-01-14 03:45:00,79.7,74.8,29.94,ESE,110,10.0,15.0,85,0.00,,,0.00,WeatherDisplay:10.37,2013-01-14 09:45:00,
2013-01-14 04:00:00,79.6,74.7,29.94,ESE,110,10.0,15.0,85,0.00,,,0.00,WeatherDisplay:10.37,2013-01-14 10:00:00,
2013-01-14 04:15:00,79.5,74.2,29.94,ESE,112,12.0,17.0,84,0.00,CLR,,0.00,WeatherDisplay:10.37,2013-01-14 10:15:00,
2013-01-14 04:30:00,79.6,74.7,29.95,ESE,109,10.0,15.0,85,0.00,,,0.00,WeatherDisplay:10.37,2013-01-14 10:30:00,
2013-01-14 04:45:00,79.7,75.1,29.95,ESE,111,9.0,16.0,86,0.00,,,0.00,WeatherDisplay:10.37,2013-01-14 10:45:00,
2013-01-14 05:00:00,79.4,74.1,29.95,ESE,111,12.0,16.0,84,0.00,,,0.00,WeatherDisplay:10.37,2013-01-14 11:00:00,
2013-01-14 05:15:00,79.6,74.7,29.96,ESE,112,12.0,16.0,85,0.00,,,0.00,WeatherDisplay:10.37,2013-01-14 11:15:00,
2013-01-14 05:30:00,79.6,74.7,29.96,ESE,109,12.0,16.0,85,0.00,,,0.00,WeatherDisplay:10.37,2013-01-14 11:30:00,
2013-01-14 05:45:00,79.5,74.6,29.96,ESE,110,13.0,15.0,85,0.00,,,0.00,WeatherDisplay:10.37,2013-01-14 11:45:00,
2013-01-14 06:00:00,79.6,75.0,29.97,ESE,109,12.0,16.0,86,0.00,,,0.00,WeatherDisplay:10.37,2013-01-14 12:00:00,
2013-01-14 06:15:00,79.6,74.7,29.97,ESE,114,13.0,18.0,85,0.00,,,0.00,WeatherDisplay:10.37,2013-01-14 12:15:00,
2013-01-14 06:30:00,79.6,75.0,29.97,ESE,111,12.0,17.0,86,0.00,,,0.00,WeatherDisplay:10.37,2013-01-14 12:30:00,
2013-01-14 06:45:00,79.8,74.9,29.97,ESE,112,14.0,16.0,85,0.00,,,0.00,WeatherDisplay:10.37,2013-01-14 12:45:00,
2013-01-14 07:00:00,80.2,75.3,29.98,ESE,108,9.0,17.0,85,0.00,,,0.00,WeatherDisplay:10.37,2013-01-14 13:00:00,
2013-01-14 07:15:00,80.7,75.4,29.99,ESE,109,13.0,18.0,84,0.00,CLR,,0.00,WeatherDisplay:10.37,2013-01-14 13:15:00,
2013-01-14 07:30:00,80.9,75.3,29.99,ESE,109,12.0,16.0,83,0.00,CLR,,0.00,WeatherDisplay:10.37,2013-01-14 13:30:00,
2013-01-14 07:45:00,82.0,75.6,29.99,ESE,109,12.0,17.0,81,0.00,CLR,,0.00,WeatherDisplay:10.37,2013-01-14 13:45:00,
2013-01-14 08:00:00,82.1,74.9,30.00,ESE,110,14.0,17.0,79,0.00,CLR,,0.00,WeatherDisplay:10.37,2013-01-14 14:00:00,
2013-01-14 08:15:00,82.7,75.1,30.00,ESE,112,14.0,18.0,78,0.00,CLR,,0.00,WeatherDisplay:10.37,2013-01-14 14:15:00,
2013-01-14 08:30:00,83.2,75.6,30.01,ESE,111,13.0,17.0,78,0.00,CLR,,0.00,WeatherDisplay:10.37,2013-01-14 14:30:00,
2013-01-14 08:45:00,82.8,75.6,30.01,ESE,109,13.0,17.0,79,0.00,CLR,,0.00,WeatherDisplay:10.37,2013-01-14 14:45:00,
2013-01-14 09:00:00,83.2,74.8,30.02,ESE,113,13.0,17.0,76,0.00,CLR,,0.00,WeatherDisplay:10.37,2013-01-14 15:00:00,
2013-01-14 09:15:00,83.8,75.4,30.02,ESE,115,10.0,16.0,76,0.00,CLR,,0.00,WeatherDisplay:10.37,2013-01-14 15:15:00,
2013-01-14 09:30:00,84.4,75.6,30.02,ESE,115,12.0,16.0,75,0.00,CLR,,0.00,WeatherDisplay:10.37,2013-01-14 15:30:00,
2013-01-14 09:45:00,84.4,76.0,30.02,ESE,116,10.0,16.0,76,0.00,CLR,,0.00,WeatherDisplay:10.37,2013-01-14 15:45:00,
2013-01-14 10:00:00,84.4,75.2,30.02,ESE,112,12.0,15.0,74,0.00,CLR,,0.00,WeatherDisplay:10.37,2013-01-14 16:00:00,
2013-01-14 10:15:00,84.4,76.0,30.02,ESE,110,9.0,14.0,76,0.00,CLR,,0.00,WeatherDisplay:10.37,2013-01-14 16:15:00,
2013-01-14 10:30:00,84.7,75.9,30.02,ESE,113,10.0,14.0,75,0.00,CLR,,0.00,WeatherDisplay:10.37,2013-01-14 16:30:00,
2013-01-14 10:45:00,84.6,75.8,30.01,ESE,114,12.0,14.0,75,0.00,CLR,,0.00,WeatherDisplay:10.37,2013-01-14 16:45:00,
2013-01-14 11:00:00,83.8,75.8,30.01,ESE,103,6.0,12.0,77,0.00,CLR,,0.00,WeatherDisplay:10.37,2013-01-14 17:00:00,
2013-01-14 11:15:00,83.6,75.6,30.00,ESE,111,13.0,17.0,77,0.00,CLR,,0.00,WeatherDisplay:10.37,2013-01-14 17:15:00,
2013-01-14 11:30:00,83.7,75.3,30.00,ESE,110,9.0,16.0,76,0.00,CLR,,0.00,WeatherDisplay:10.37,2013-01-14 17:30:00,
2013-01-14 11:45:00,83.9,75.6,29.99,ESE,110,9.0,15.0,76,0.00,CLR,,0.00,WeatherDisplay:10.37,2013-01-14 17:45:00,
2013-01-14 12:00:00,84.1,75.7,29.99,ESE,111,9.0,14.0,76,0.00,CLR,,0.00,WeatherDisplay:10.37,2013-01-14 18:00:00,
2013-01-14 12:15:00,82.1,74.6,29.99,ENE,64,5.0,23.0,78,0.00,CLR,,0.00,WeatherDisplay:10.37,2013-01-14 18:15:00,
2013-01-14 12:30:00,83.1,75.9,29.98,East,100,7.0,12.0,79,0.00,CLR,,0.00,WeatherDisplay:10.37,2013-01-14 18:30:00,
2013-01-14 12:45:00,83.2,76.4,29.97,ESE,105,8.0,13.0,80,0.00,CLR,,0.00,WeatherDisplay:10.37,2013-01-14 18:45:00,
2013-01-14 13:00:00,83.0,75.8,29.97,ESE,109,9.0,13.0,79,0.00,CLR,,0.00,WeatherDisplay:10.37,2013-01-14 19:00:00,
2013-01-14 13:15:00,82.7,75.5,29.97,ESE,110,12.0,15.0,79,0.00,CLR,,0.00,WeatherDisplay:10.37,2013-01-14 19:15:00,
2013-01-14 13:30:00,82.6,75.4,29.96,ESE,106,12.0,15.0,79,0.00,CLR,,0.00,WeatherDisplay:10.37,2013-01-14 19:30:00,
2013-01-14 13:45:00,83.1,75.9,29.96,East,98,7.0,14.0,79,0.00,CLR,,0.00,WeatherDisplay:10.37,2013-01-14 19:45:00,
2013-01-14 14:00:00,83.1,75.5,29.96,ESE,107,7.0,13.0,78,0.00,CLR,,0.00,WeatherDisplay:10.37,2013-01-14 20:00:00,
2013-01-14 14:15:00,83.2,76.0,29.96,ESE,103,8.0,12.0,79,0.00,CLR,,0.00,WeatherDisplay:10.37,2013-01-14 20:15:00,
2013-01-14 14:30:00,83.4,75.8,29.96,East,86,5.0,12.0,78,0.00,CLR,,0.00,WeatherDisplay:10.37,2013-01-14 20:30:00,
2013-01-14 14:45:00,83.5,75.5,29.96,East,92,6.0,12.0,77,0.00,CLR,,0.00,WeatherDisplay:10.37,2013-01-14 20:45:00,
2013-01-14 15:00:00,83.2,75.2,29.96,East,97,6.0,12.0,77,0.00,CLR,,0.00,WeatherDisplay:10.37,2013-01-14 21:00:00,
2013-01-14 15:15:00,82.9,74.9,29.97,ESE,103,7.0,13.0,77,0.00,CLR,,0.00,WeatherDisplay:10.37,2013-01-14 21:15:00,
2013-01-14 15:30:00,83.0,75.4,29.97,East,93,5.0,12.0,78,0.00,CLR,,0.00,WeatherDisplay:10.37,2013-01-14 21:30:00,
2013-01-14 15:45:00,82.9,74.9,29.97,East,94,3.0,12.0,77,0.00,CLR,,0.00,WeatherDisplay:10.37,2013-01-14 21:45:00,
2013-01-14 16:00:00,82.8,75.3,29.97,East,95,5.0,12.0,78,0.00,CLR,,0.00,WeatherDisplay:10.37,2013-01-14 22:00:00,
2013-01-14 16:15:00,82.7,75.1,29.98,East,92,5.0,10.0,78,0.00,CLR,,0.00,WeatherDisplay:10.37,2013-01-14 22:15:00,
2013-01-14 16:26:00,82.4,74.9,29.98,ESE,102,6.0,12.0,78,0.00,CLR,,0.00,WeatherDisplay:10.37,2013-01-14 22:26:00,
2013-01-14 16:45:00,82.2,75.0,29.98,East,96,5.0,12.0,79,0.00,CLR,,0.00,WeatherDisplay:10.37,2013-01-14 22:45:00,
2013-01-14 17:00:00,81.9,74.8,29.98,East,97,7.0,12.0,79,0.00,CLR,,0.00,WeatherDisplay:10.37,2013-01-14 23:00:00,
2013-01-14 17:15:00,81.9,75.1,29.99,East,99,6.0,12.0,80,0.00,CLR,,0.00,WeatherDisplay:10.37,2013-01-14 23:15:00,
2013-01-14 17:30:00,81.7,74.9,29.99,East,99,5.0,13.0,80,0.00,CLR,,0.00,WeatherDisplay:10.37,2013-01-14 23:30:00,
2013-01-14 17:45:00,81.7,74.9,29.99,East,96,5.0,13.0,80,0.00,CLR,,0.00,WeatherDisplay:10.37,2013-01-14 23:45:00,
2013-01-14 18:00:00,81.6,75.2,29.99,East,97,3.0,12.0,81,0.00,CLR,,0.00,WeatherDisplay:10.37,2013-01-15 00:00:00,
2013-01-14 18:15:00,81.6,74.8,29.99,East,96,6.0,12.0,80,0.00,CLR,,0.00,WeatherDisplay:10.37,2013-01-15 00:15:00,
2013-01-14 19:45:00,81.0,74.6,29.99,East,83,8.0,12.0,81,0.00,CLR,,0.00,WeatherDisplay:10.37,2013-01-15 01:45:00,
2013-01-14 20:00:00,80.8,74.8,29.99,East,80,9.0,13.0,82,0.00,CLR,,0.00,WeatherDisplay:10.37,2013-01-15 02:00:00,
2013-01-14 20:15:00,80.8,74.8,29.99,East,81,6.0,12.0,82,0.00,CLR,,0.00,WeatherDisplay:10.37,2013-01-15 02:15:00,
2013-01-14 20:30:00,80.7,75.1,29.99,East,82,9.0,13.0,83,0.00,CLR,,0.00,WeatherDisplay:10.37,2013-01-15 02:30:00,
2013-01-14 20:45:00,80.6,75.0,30.00,East,84,8.0,14.0,83,0.00,CLR,,0.00,WeatherDisplay:10.37,2013-01-15 02:45:00,
2013-01-14 21:00:00,80.5,74.9,29.99,East,83,9.0,13.0,83,0.00,CLR,,0.00,WeatherDisplay:10.37,2013-01-15 03:00:00,
2013-01-14 21:15:00,80.5,74.9,30.00,East,82,8.0,14.0,83,0.00,CLR,,0.00,WeatherDisplay:10.37,2013-01-15 03:15:00,
2013-01-14 21:30:00,80.5,75.2,30.00,East,83,8.0,14.0,84,0.00,CLR,,0.00,WeatherDisplay:10.37,2013-01-15 03:30:00,
2013-01-14 21:45:00,80.5,75.6,30.00,East,81,10.0,13.0,85,0.00,CLR,,0.00,WeatherDisplay:10.37,2013-01-15 03:45:00,
2013-01-14 22:00:00,80.5,75.9,30.00,East,82,10.0,13.0,86,0.00,,,0.00,WeatherDisplay:10.37,2013-01-15 04:00:00,
2013-01-14 22:15:00,80.3,75.4,30.00,East,84,7.0,15.0,85,0.00,,,0.00,WeatherDisplay:10.37,2013-01-15 04:15:00,
2013-01-14 22:30:00,80.3,75.4,30.00,East,85,12.0,14.0,85,0.00,,,0.00,WeatherDisplay:10.37,2013-01-15 04:30:00,
2013-01-14 22:45:00,80.2,75.3,29.99,East,87,3.0,14.0,85,0.00,,,0.00,WeatherDisplay:10.37,2013-01-15 04:45:00,
2013-01-14 23:00:00,80.3,75.7,29.99,East,90,5.0,12.0,86,0.00,,,0.00,WeatherDisplay:10.37,2013-01-15 05:00:00,
2013-01-14 23:15:00,80.2,75.7,29.99,East,92,9.0,13.0,86,0.00,,,0.00,WeatherDisplay:10.37,2013-01-15 05:15:00,
2013-01-14 23:30:00,80.1,75.5,29.99,East,84,9.0,13.0,86,0.00,,,0.00,WeatherDisplay:10.37,2013-01-15 05:30:00,
2013-01-14 23:45:00,80.2,75.6,29.98,East,88,3.0,13.0,86,0.00,,,0.00,WeatherDisplay:10.37,2013-01-15 05:45:00,